Zachary, Louisiana
Current Conditions -  °F | °C
As of 3:53 PM on Friday 31 Oct 2014 (Local Time) from KBTR Reporting Station
Clear Clear  
Wind Chill: 22°   Ceiling: Unl
Heat Index: 22°   Visibility: 10mi
Dew Point:   Wind: 15mph
Humidity: 37%   Direction: 340°NNW
Pressure: 30.06"   Gusts: 24mph
Location:  30.65°N, 91.16°W
Report Text: KBTR 312053Z 34013G21KT 10SM CLR 22/07 A3006 RMK AO2 SLP177 T02220067 55003
Loading
Personal Weather Stations






























Interactive Weather Map
Tropical Storm Tracking
New forecast layout! Learn more

10-Day Weather Forecast

Advertisements
Track Severe Weather on mobile